sensor_id;sensor_type;location;lat;lon;timestamp;P1;durP1;ratioP1;P2;durP2;ratioP2
25069;SDS011;13064;48.162;11.536;2023-05-24T00:00:33;3.45;;;2.90;;
25069;SDS011;13064;48.162;11.536;2023-05-24T00:03:01;3.28;;;2.88;;
25069;SDS011;13064;48.162;11.536;2023-05-24T00:05:30;4.15;;;3.03;;
25069;SDS011;13064;48.162;11.536;2023-05-24T00:07:58;4.70;;;2.97;;
25069;SDS011;13064;48.162;11.536;2023-05-24T00:10:25;3.50;;;3.10;;
25069;SDS011;13064;48.162;11.536;2023-05-24T00:12:53;3.95;;;2.75;;
25069;SDS011;13064;48.162;11.536;2023-05-24T00:15:21;4.00;;;3.28;;
25069;SDS011;13064;48.162;11.536;2023-05-24T00:17:48;4.10;;;3.53;;
25069;SDS011;13064;48.162;11.536;2023-05-24T00:20:17;3.63;;;2.88;;
25069;SDS011;13064;48.162;11.536;2023-05-24T00:22:46;3.70;;;3.20;;
25069;SDS011;13064;48.162;11.536;2023-05-24T00:25:14;4.68;;;3.28;;
25069;SDS011;13064;48.162;11.536;2023-05-24T00:27:41;3.78;;;3.15;;
25069;SDS011;13064;48.162;11.536;2023-05-24T00:30:09;6.32;;;2.80;;
25069;SDS011;13064;48.162;11.536;2023-05-24T00:32:36;4.07;;;3.05;;
25069;SDS011;13064;48.162;11.536;2023-05-24T00:35:04;3.63;;;3.25;;
25069;SDS011;13064;48.162;11.536;2023-05-24T00:37:32;3.63;;;3.13;;
25069;SDS011;13064;48.162;11.536;2023-05-24T00:40:00;5.15;;;3.50;;
25069;SDS011;13064;48.162;11.536;2023-05-24T00:42:27;4.50;;;3.28;;
25069;SDS011;13064;48.162;11.536;2023-05-24T00:44:55;5.35;;;3.30;;
25069;SDS011;13064;48.162;11.536;2023-05-24T00:47:24;5.63;;;3.40;;
25069;SDS011;13064;48.162;11.536;2023-05-24T00:49:51;4.90;;;3.60;;
25069;SDS011;13064;48.162;11.536;2023-05-24T00:52:19;3.90;;;3.45;;
25069;SDS011;13064;48.162;11.536;2023-05-24T00:54:47;5.53;;;3.63;;
25069;SDS011;13064;48.162;11.536;2023-05-24T00:57:16;4.78;;;3.42;;
25069;SDS011;13064;48.162;11.536;2023-05-24T00:59:44;4.60;;;3.20;;
25069;SDS011;13064;48.162;11.536;2023-05-24T01:02:12;3.97;;;3.40;;
25069;SDS011;13064;48.162;11.536;2023-05-24T01:04:39;4.85;;;3.67;;
25069;SDS011;13064;48.162;11.536;2023-05-24T01:12:27;4.95;;;3.88;;
25069;SDS011;13064;48.162;11.536;2023-05-24T01:15:10;6.20;;;3.72;;
25069;SDS011;13064;48.162;11.536;2023-05-24T01:20:18;4.97;;;3.80;;
25069;SDS011;13064;48.162;11.536;2023-05-24T01:23:13;5.43;;;4.00;;
25069;SDS011;13064;48.162;11.536;2023-05-24T01:28:30;4.57;;;3.95;;
25069;SDS011;13064;48.162;11.536;2023-05-24T01:30:58;5.22;;;4.13;;
25069;SDS011;13064;48.162;11.536;2023-05-24T01:33:26;4.28;;;3.50;;
25069;SDS011;13064;48.162;11.536;2023-05-24T01:35:55;5.65;;;4.20;;
25069;SDS011;13064;48.162;11.536;2023-05-24T01:38:23;4.75;;;3.80;;
25069;SDS011;13064;48.162;11.536;2023-05-24T01:40:51;5.63;;;3.90;;
25069;SDS011;13064;48.162;11.536;2023-05-24T01:43:33;4.28;;;3.45;;
25069;SDS011;13064;48.162;11.536;2023-05-24T01:46:18;5.55;;;4.10;;
25069;SDS011;13064;48.162;11.536;2023-05-24T01:51:17;4.93;;;4.07;;
25069;SDS011;13064;48.162;11.536;2023-05-24T01:53:45;4.38;;;3.80;;
25069;SDS011;13064;48.162;11.536;2023-05-24T01:56:15;4.20;;;3.80;;
25069;SDS011;13064;48.162;11.536;2023-05-24T01:58:45;5.00;;;4.07;;
25069;SDS011;13064;48.162;11.536;2023-05-24T02:01:13;4.13;;;3.70;;
25069;SDS011;13064;48.162;11.536;2023-05-24T02:03:41;5.18;;;4.15;;
25069;SDS011;13064;48.162;11.536;2023-05-24T02:06:09;5.18;;;4.20;;
25069;SDS011;13064;48.162;11.536;2023-05-24T02:08:38;4.75;;;3.88;;
25069;SDS011;13064;48.162;11.536;2023-05-24T02:11:06;6.70;;;4.38;;
25069;SDS011;13064;48.162;11.536;2023-05-24T02:13:34;6.38;;;4.22;;
25069;SDS011;13064;48.162;11.536;2023-05-24T02:16:01;5.20;;;4.20;;
25069;SDS011;13064;48.162;11.536;2023-05-24T02:18:30;5.95;;;4.10;;
25069;SDS011;13064;48.162;11.536;2023-05-24T02:21:00;5.13;;;4.07;;
25069;SDS011;13064;48.162;11.536;2023-05-24T02:23:28;5.97;;;4.63;;
25069;SDS011;13064;48.162;11.536;2023-05-24T02:25:58;4.97;;;4.07;;
25069;SDS011;13064;48.162;11.536;2023-05-24T02:28:26;6.82;;;4.45;;
25069;SDS011;13064;48.162;11.536;2023-05-24T02:30:57;4.90;;;4.43;;
25069;SDS011;13064;48.162;11.536;2023-05-24T02:33:25;5.05;;;4.32;;
25069;SDS011;13064;48.162;11.536;2023-05-24T02:35:55;6.05;;;4.80;;
25069;SDS011;13064;48.162;11.536;2023-05-24T02:38:22;5.35;;;4.47;;
25069;SDS011;13064;48.162;11.536;2023-05-24T02:40:50;5.05;;;4.18;;
25069;SDS011;13064;48.162;11.536;2023-05-24T02:43:18;4.65;;;4.03;;
25069;SDS011;13064;48.162;11.536;2023-05-24T02:45:45;5.78;;;4.40;;
25069;SDS011;13064;48.162;11.536;2023-05-24T02:48:13;5.65;;;4.40;;
25069;SDS011;13064;48.162;11.536;2023-05-24T02:50:41;5.53;;;4.55;;
25069;SDS011;13064;48.162;11.536;2023-05-24T02:53:09;4.65;;;4.18;;
25069;SDS011;13064;48.162;11.536;2023-05-24T02:55:37;6.18;;;4.22;;
25069;SDS011;13064;48.162;11.536;2023-05-24T02:58:05;7.78;;;5.03;;
25069;SDS011;13064;48.162;11.536;2023-05-24T03:00:34;7.18;;;5.05;;
25069;SDS011;13064;48.162;11.536;2023-05-24T03:03:02;5.45;;;4.65;;
25069;SDS011;13064;48.162;11.536;2023-05-24T03:05:31;8.35;;;4.90;;
25069;SDS011;13064;48.162;11.536;2023-05-24T03:07:59;5.95;;;5.30;;
25069;SDS011;13064;48.162;11.536;2023-05-24T03:10:27;7.20;;;4.63;;
25069;SDS011;13064;48.162;11.536;2023-05-24T03:12:55;6.50;;;5.25;;
25069;SDS011;13064;48.162;11.536;2023-05-24T03:15:23;7.93;;;5.40;;
25069;SDS011;13064;48.162;11.536;2023-05-24T03:17:52;6.28;;;5.32;;
25069;SDS011;13064;48.162;11.536;2023-05-24T03:20:20;6.70;;;4.93;;
25069;SDS011;13064;48.162;11.536;2023-05-24T03:22:50;5.47;;;4.72;;
25069;SDS011;13064;48.162;11.536;2023-05-24T03:25:17;5.40;;;4.78;;
25069;SDS011;13064;48.162;11.536;2023-05-24T03:27:45;6.07;;;5.00;;
25069;SDS011;13064;48.162;11.536;2023-05-24T03:30:13;5.95;;;4.82;;
25069;SDS011;13064;48.162;11.536;2023-05-24T03:32:49;6.38;;;5.50;;
25069;SDS011;13064;48.162;11.536;2023-05-24T03:35:17;5.47;;;4.90;;
25069;SDS011;13064;48.162;11.536;2023-05-24T03:37:46;5.47;;;4.88;;
25069;SDS011;13064;48.162;11.536;2023-05-24T03:40:14;6.40;;;5.18;;
25069;SDS011;13064;48.162;11.536;2023-05-24T03:42:52;6.32;;;4.90;;
25069;SDS011;13064;48.162;11.536;2023-05-24T03:45:30;8.02;;;5.15;;
25069;SDS011;13064;48.162;11.536;2023-05-24T03:48:05;7.45;;;5.65;;
25069;SDS011;13064;48.162;11.536;2023-05-24T03:50:33;7.05;;;5.47;;
25069;SDS011;13064;48.162;11.536;2023-05-24T03:53:01;6.78;;;5.60;;
25069;SDS011;13064;48.162;11.536;2023-05-24T03:55:29;6.63;;;5.05;;
25069;SDS011;13064;48.162;11.536;2023-05-24T03:57:56;8.23;;;5.35;;
25069;SDS011;13064;48.162;11.536;2023-05-24T04:00:25;6.70;;;5.50;;
25069;SDS011;13064;48.162;11.536;2023-05-24T04:02:52;7.80;;;5.50;;
25069;SDS011;13064;48.162;11.536;2023-05-24T04:05:21;6.60;;;5.72;;
25069;SDS011;13064;48.162;11.536;2023-05-24T04:07:55;6.47;;;5.50;;
25069;SDS011;13064;48.162;11.536;2023-05-24T04:10:23;7.75;;;5.75;;
25069;SDS011;13064;48.162;11.536;2023-05-24T04:12:50;7.40;;;5.63;;
25069;SDS011;13064;48.162;11.536;2023-05-24T04:15:18;9.63;;;6.13;;
25069;SDS011;13064;48.162;11.536;2023-05-24T04:17:46;8.70;;;5.72;;
25069;SDS011;13064;48.162;11.536;2023-05-24T04:20:21;7.88;;;6.00;;
25069;SDS011;13064;48.162;11.536;2023-05-24T04:22:53;7.78;;;5.85;;
25069;SDS011;13064;48.162;11.536;2023-05-24T04:25:22;7.07;;;5.72;;
25069;SDS011;13064;48.162;11.536;2023-05-24T04:27:50;7.95;;;5.25;;
25069;SDS011;13064;48.162;11.536;2023-05-24T04:30:18;7.28;;;5.43;;
25069;SDS011;13064;48.162;11.536;2023-05-24T04:32:46;9.38;;;5.47;;
25069;SDS011;13064;48.162;11.536;2023-05-24T04:35:16;12.30;;;5.53;;
25069;SDS011;13064;48.162;11.536;2023-05-24T04:37:44;11.20;;;5.97;;
25069;SDS011;13064;48.162;11.536;2023-05-24T04:40:18;8.73;;;5.63;;
25069;SDS011;13064;48.162;11.536;2023-05-24T04:42:46;8.45;;;5.28;;
25069;SDS011;13064;48.162;11.536;2023-05-24T04:45:14;8.85;;;4.82;;
25069;SDS011;13064;48.162;11.536;2023-05-24T04:47:42;7.38;;;4.88;;
25069;SDS011;13064;48.162;11.536;2023-05-24T04:50:11;7.30;;;4.72;;
25069;SDS011;13064;48.162;11.536;2023-05-24T04:52:38;6.57;;;4.72;;
25069;SDS011;13064;48.162;11.536;2023-05-24T04:55:06;8.13;;;4.88;;
25069;SDS011;13064;48.162;11.536;2023-05-24T04:57:34;6.50;;;4.50;;
25069;SDS011;13064;48.162;11.536;2023-05-24T05:00:02;6.82;;;5.07;;
25069;SDS011;13064;48.162;11.536;2023-05-24T05:02:31;7.75;;;5.03;;
25069;SDS011;13064;48.162;11.536;2023-05-24T05:04:58;9.88;;;4.43;;
25069;SDS011;13064;48.162;11.536;2023-05-24T05:07:26;8.65;;;4.57;;
25069;SDS011;13064;48.162;11.536;2023-05-24T05:09:54;8.05;;;4.32;;
25069;SDS011;13064;48.162;11.536;2023-05-24T05:12:22;6.57;;;4.25;;
25069;SDS011;13064;48.162;11.536;2023-05-24T05:14:50;7.03;;;4.57;;
25069;SDS011;13064;48.162;11.536;2023-05-24T05:17:18;7.97;;;4.38;;
25069;SDS011;13064;48.162;11.536;2023-05-24T05:19:45;6.90;;;4.15;;
25069;SDS011;13064;48.162;11.536;2023-05-24T05:22:13;6.32;;;4.43;;
25069;SDS011;13064;48.162;11.536;2023-05-24T05:24:41;7.38;;;4.47;;
25069;SDS011;13064;48.162;11.536;2023-05-24T05:27:09;9.43;;;4.93;;
25069;SDS011;13064;48.162;11.536;2023-05-24T05:29:37;6.95;;;4.28;;
25069;SDS011;13064;48.162;11.536;2023-05-24T05:32:05;8.50;;;4.65;;
25069;SDS011;13064;48.162;11.536;2023-05-24T05:34:32;6.97;;;4.70;;
25069;SDS011;13064;48.162;11.536;2023-05-24T05:37:00;6.28;;;4.40;;
25069;SDS011;13064;48.162;11.536;2023-05-24T05:39:28;6.60;;;4.38;;
25069;SDS011;13064;48.162;11.536;2023-05-24T05:41:57;6.28;;;4.80;;
25069;SDS011;13064;48.162;11.536;2023-05-24T05:44:25;8.88;;;5.20;;
25069;SDS011;13064;48.162;11.536;2023-05-24T05:46:53;9.55;;;6.28;;
25069;SDS011;13064;48.162;11.536;2023-05-24T05:49:21;11.75;;;6.68;;
25069;SDS011;13064;48.162;11.536;2023-05-24T05:51:49;7.78;;;6.18;;
25069;SDS011;13064;48.162;11.536;2023-05-24T05:54:18;8.90;;;6.03;;
25069;SDS011;13064;48.162;11.536;2023-05-24T05:56:46;7.22;;;5.63;;
25069;SDS011;13064;48.162;11.536;2023-05-24T05:59:14;8.18;;;5.60;;
25069;SDS011;13064;48.162;11.536;2023-05-24T06:01:42;6.60;;;5.60;;
25069;SDS011;13064;48.162;11.536;2023-05-24T06:04:12;11.60;;;5.85;;
25069;SDS011;13064;48.162;11.536;2023-05-24T06:06:41;8.77;;;5.45;;
25069;SDS011;13064;48.162;11.536;2023-05-24T06:09:10;7.45;;;5.63;;
25069;SDS011;13064;48.162;11.536;2023-05-24T06:11:38;8.80;;;5.57;;
25069;SDS011;13064;48.162;11.536;2023-05-24T06:14:10;8.88;;;5.60;;
25069;SDS011;13064;48.162;11.536;2023-05-24T06:16:39;7.78;;;5.65;;
25069;SDS011;13064;48.162;11.536;2023-05-24T06:19:09;9.57;;;5.85;;
25069;SDS011;13064;48.162;11.536;2023-05-24T06:21:36;8.35;;;5.93;;
25069;SDS011;13064;48.162;11.536;2023-05-24T06:24:06;8.63;;;6.30;;
25069;SDS011;13064;48.162;11.536;2023-05-24T06:26:35;8.63;;;6.13;;
25069;SDS011;13064;48.162;11.536;2023-05-24T06:29:03;8.18;;;5.60;;
25069;SDS011;13064;48.162;11.536;2023-05-24T06:31:30;9.30;;;5.75;;
25069;SDS011;13064;48.162;11.536;2023-05-24T06:33:58;11.02;;;6.32;;
25069;SDS011;13064;48.162;11.536;2023-05-24T06:36:30;9.02;;;5.93;;
25069;SDS011;13064;48.162;11.536;2023-05-24T06:39:01;13.52;;;5.57;;
25069;SDS011;13064;48.162;11.536;2023-05-24T06:41:30;9.27;;;6.13;;
25069;SDS011;13064;48.162;11.536;2023-05-24T06:43:57;7.53;;;6.07;;
25069;SDS011;13064;48.162;11.536;2023-05-24T06:46:25;13.75;;;5.88;;
25069;SDS011;13064;48.162;11.536;2023-05-24T06:48:53;12.07;;;6.07;;
25069;SDS011;13064;48.162;11.536;2023-05-24T06:51:20;7.07;;;6.13;;
25069;SDS011;13064;48.162;11.536;2023-05-24T06:53:48;7.85;;;6.43;;
25069;SDS011;13064;48.162;11.536;2023-05-24T06:56:16;7.80;;;5.72;;
25069;SDS011;13064;48.162;11.536;2023-05-24T06:58:44;9.05;;;6.63;;
25069;SDS011;13064;48.162;11.536;2023-05-24T07:01:12;7.47;;;5.68;;
25069;SDS011;13064;48.162;11.536;2023-05-24T07:03:40;8.35;;;5.63;;
25069;SDS011;13064;48.162;11.536;2023-05-24T07:06:08;9.90;;;6.15;;
25069;SDS011;13064;48.162;11.536;2023-05-24T07:08:40;8.45;;;6.28;;
25069;SDS011;13064;48.162;11.536;2023-05-24T07:11:07;8.23;;;5.60;;
25069;SDS011;13064;48.162;11.536;2023-05-24T07:13:35;8.00;;;5.38;;
25069;SDS011;13064;48.162;11.536;2023-05-24T07:16:04;7.57;;;5.65;;
25069;SDS011;13064;48.162;11.536;2023-05-24T07:18:32;8.05;;;4.82;;
25069;SDS011;13064;48.162;11.536;2023-05-24T07:21:00;7.22;;;5.28;;
25069;SDS011;13064;48.162;11.536;2023-05-24T07:23:27;7.60;;;5.85;;
25069;SDS011;13064;48.162;11.536;2023-05-24T07:25:55;8.18;;;5.35;;
25069;SDS011;13064;48.162;11.536;2023-05-24T07:28:23;8.70;;;5.47;;
25069;SDS011;13064;48.162;11.536;2023-05-24T07:30:50;8.63;;;5.63;;
25069;SDS011;13064;48.162;11.536;2023-05-24T07:33:18;8.65;;;5.82;;
25069;SDS011;13064;48.162;11.536;2023-05-24T07:35:48;7.70;;;5.25;;
25069;SDS011;13064;48.162;11.536;2023-05-24T07:38:17;7.45;;;5.63;;
25069;SDS011;13064;48.162;11.536;2023-05-24T07:40:44;8.20;;;5.32;;
25069;SDS011;13064;48.162;11.536;2023-05-24T07:43:12;7.68;;;6.00;;
25069;SDS011;13064;48.162;11.536;2023-05-24T07:45:40;8.25;;;5.63;;
25069;SDS011;13064;48.162;11.536;2023-05-24T07:48:08;7.63;;;5.78;;
25069;SDS011;13064;48.162;11.536;2023-05-24T07:50:36;7.57;;;5.45;;
25069;SDS011;13064;48.162;11.536;2023-05-24T07:53:04;8.60;;;6.05;;
25069;SDS011;13064;48.162;11.536;2023-05-24T07:55:32;6.88;;;5.72;;
25069;SDS011;13064;48.162;11.536;2023-05-24T07:58:01;7.10;;;5.38;;
25069;SDS011;13064;48.162;11.536;2023-05-24T08:00:28;7.28;;;5.32;;
25069;SDS011;13064;48.162;11.536;2023-05-24T08:02:56;7.00;;;5.90;;
25069;SDS011;13064;48.162;11.536;2023-05-24T08:05:24;7.85;;;7.03;;
25069;SDS011;13064;48.162;11.536;2023-05-24T08:07:52;10.18;;;6.78;;
25069;SDS011;13064;48.162;11.536;2023-05-24T08:10:19;10.63;;;7.60;;
25069;SDS011;13064;48.162;11.536;2023-05-24T08:12:48;11.60;;;7.32;;
25069;SDS011;13064;48.162;11.536;2023-05-24T08:15:17;8.98;;;7.93;;
25069;SDS011;13064;48.162;11.536;2023-05-24T08:17:44;9.98;;;8.90;;
25069;SDS011;13064;48.162;11.536;2023-05-24T08:20:12;10.23;;;7.95;;
25069;SDS011;13064;48.162;11.536;2023-05-24T08:22:41;9.90;;;8.82;;
25069;SDS011;13064;48.162;11.536;2023-05-24T08:25:09;9.43;;;8.35;;
25069;SDS011;13064;48.162;11.536;2023-05-24T08:27:40;10.15;;;8.23;;
25069;SDS011;13064;48.162;11.536;2023-05-24T08:30:08;10.00;;;8.65;;
25069;SDS011;13064;48.162;11.536;2023-05-24T08:32:36;9.13;;;8.23;;
25069;SDS011;13064;48.162;11.536;2023-05-24T08:35:04;11.02;;;8.65;;
25069;SDS011;13064;48.162;11.536;2023-05-24T08:37:47;7.93;;;7.13;;
25069;SDS011;13064;48.162;11.536;2023-05-24T08:40:15;7.45;;;6.40;;
25069;SDS011;13064;48.162;11.536;2023-05-24T08:42:43;9.75;;;6.75;;
25069;SDS011;13064;48.162;11.536;2023-05-24T08:45:13;9.10;;;6.75;;
25069;SDS011;13064;48.162;11.536;2023-05-24T08:47:41;8.98;;;6.15;;
25069;SDS011;13064;48.162;11.536;2023-05-24T08:50:08;7.30;;;5.68;;
25069;SDS011;13064;48.162;11.536;2023-05-24T08:52:36;7.80;;;5.38;;
25069;SDS011;13064;48.162;11.536;2023-05-24T08:55:05;8.98;;;5.90;;
25069;SDS011;13064;48.162;11.536;2023-05-24T08:57:33;9.38;;;6.80;;
25069;SDS011;13064;48.162;11.536;2023-05-24T09:02:32;8.80;;;7.10;;
25069;SDS011;13064;48.162;11.536;2023-05-24T09:05:00;11.32;;;7.40;;
25069;SDS011;13064;48.162;11.536;2023-05-24T09:07:28;10.18;;;6.90;;
25069;SDS011;13064;48.162;11.536;2023-05-24T09:10:05;8.25;;;6.97;;
25069;SDS011;13064;48.162;11.536;2023-05-24T09:12:33;8.68;;;7.38;;
25069;SDS011;13064;48.162;11.536;2023-05-24T09:15:05;12.35;;;7.40;;
25069;SDS011;13064;48.162;11.536;2023-05-24T09:17:34;10.30;;;7.30;;
25069;SDS011;13064;48.162;11.536;2023-05-24T09:20:04;9.43;;;7.45;;
25069;SDS011;13064;48.162;11.536;2023-05-24T09:22:34;10.57;;;7.10;;
25069;SDS011;13064;48.162;11.536;2023-05-24T09:25:07;8.65;;;7.28;;
25069;SDS011;13064;48.162;11.536;2023-05-24T09:27:35;12.98;;;7.47;;
25069;SDS011;13064;48.162;11.536;2023-05-24T09:30:07;9.35;;;7.45;;
25069;SDS011;13064;48.162;11.536;2023-05-24T09:32:35;9.88;;;7.65;;
25069;SDS011;13064;48.162;11.536;2023-05-24T09:35:06;9.05;;;7.18;;
25069;SDS011;13064;48.162;11.536;2023-05-24T09:37:35;10.20;;;7.13;;
25069;SDS011;13064;48.162;11.536;2023-05-24T09:40:04;9.70;;;7.10;;
25069;SDS011;13064;48.162;11.536;2023-05-24T09:42:34;11.48;;;7.07;;
25069;SDS011;13064;48.162;11.536;2023-05-24T09:45:04;11.43;;;7.25;;
25069;SDS011;13064;48.162;11.536;2023-05-24T09:47:36;8.75;;;7.20;;
25069;SDS011;13064;48.162;11.536;2023-05-24T09:50:05;8.65;;;6.68;;
25069;SDS011;13064;48.162;11.536;2023-05-24T09:52:36;9.15;;;6.75;;
25069;SDS011;13064;48.162;11.536;2023-05-24T09:55:14;10.10;;;7.00;;
25069;SDS011;13064;48.162;11.536;2023-05-24T09:57:48;12.15;;;7.00;;
25069;SDS011;13064;48.162;11.536;2023-05-24T10:00:22;11.68;;;7.55;;
25069;SDS011;13064;48.162;11.536;2023-05-24T10:03:00;10.23;;;6.85;;
25069;SDS011;13064;48.162;11.536;2023-05-24T10:05:29;12.90;;;7.38;;
25069;SDS011;13064;48.162;11.536;2023-05-24T10:07:57;11.38;;;6.97;;
25069;SDS011;13064;48.162;11.536;2023-05-24T10:10:28;12.13;;;7.43;;
25069;SDS011;13064;48.162;11.536;2023-05-24T10:12:56;8.32;;;6.63;;
25069;SDS011;13064;48.162;11.536;2023-05-24T10:15:28;11.73;;;7.10;;
25069;SDS011;13064;48.162;11.536;2023-05-24T10:17:56;11.95;;;7.05;;
25069;SDS011;13064;48.162;11.536;2023-05-24T10:20:28;12.13;;;8.05;;
25069;SDS011;13064;48.162;11.536;2023-05-24T10:23:00;11.32;;;7.30;;
25069;SDS011;13064;48.162;11.536;2023-05-24T10:25:28;12.13;;;7.07;;
25069;SDS011;13064;48.162;11.536;2023-05-24T10:27:56;12.25;;;7.25;;
25069;SDS011;13064;48.162;11.536;2023-05-24T10:32:52;11.07;;;6.63;;
25069;SDS011;13064;48.162;11.536;2023-05-24T10:35:22;11.23;;;5.90;;
25069;SDS011;13064;48.162;11.536;2023-05-24T10:37:50;10.82;;;6.00;;
25069;SDS011;13064;48.162;11.536;2023-05-24T10:40:21;10.38;;;6.05;;
25069;SDS011;13064;48.162;11.536;2023-05-24T10:42:51;11.63;;;5.80;;
25069;SDS011;13064;48.162;11.536;2023-05-24T10:47:50;11.38;;;5.60;;
25069;SDS011;13064;48.162;11.536;2023-05-24T10:50:19;8.85;;;5.60;;
25069;SDS011;13064;48.162;11.536;2023-05-24T10:52:47;19.30;;;6.35;;
25069;SDS011;13064;48.162;11.536;2023-05-24T10:55:17;11.15;;;5.90;;
25069;SDS011;13064;48.162;11.536;2023-05-24T10:57:45;9.18;;;5.85;;
25069;SDS011;13064;48.162;11.536;2023-05-24T11:03:04;12.30;;;5.93;;
25069;SDS011;13064;48.162;11.536;2023-05-24T11:05:34;21.17;;;6.57;;
25069;SDS011;13064;48.162;11.536;2023-05-24T11:08:02;13.35;;;6.90;;
25069;SDS011;13064;48.162;11.536;2023-05-24T11:10:33;13.63;;;6.35;;
25069;SDS011;13064;48.162;11.536;2023-05-24T11:13:02;10.02;;;5.90;;
25069;SDS011;13064;48.162;11.536;2023-05-24T11:15:29;9.02;;;5.70;;
25069;SDS011;13064;48.162;11.536;2023-05-24T11:20:41;14.60;;;5.85;;
25069;SDS011;13064;48.162;11.536;2023-05-24T11:23:10;10.30;;;5.53;;
25069;SDS011;13064;48.162;11.536;2023-05-24T11:25:37;9.95;;;5.78;;
25069;SDS011;13064;48.162;11.536;2023-05-24T11:28:05;9.20;;;4.90;;
25069;SDS011;13064;48.162;11.536;2023-05-24T11:30:38;11.50;;;5.18;;
25069;SDS011;13064;48.162;11.536;2023-05-24T11:33:16;10.50;;;5.18;;
25069;SDS011;13064;48.162;11.536;2023-05-24T11:35:45;8.77;;;5.28;;
25069;SDS011;13064;48.162;11.536;2023-05-24T11:38:13;9.23;;;4.97;;
25069;SDS011;13064;48.162;11.536;2023-05-24T11:40:42;13.10;;;5.13;;
25069;SDS011;13064;48.162;11.536;2023-05-24T11:43:11;9.95;;;4.85;;
25069;SDS011;13064;48.162;11.536;2023-05-24T11:45:43;11.93;;;5.45;;
25069;SDS011;13064;48.162;11.536;2023-05-24T11:48:11;8.68;;;4.85;;
25069;SDS011;13064;48.162;11.536;2023-05-24T11:50:39;10.18;;;5.00;;
25069;SDS011;13064;48.162;11.536;2023-05-24T11:53:17;11.13;;;5.38;;
25069;SDS011;13064;48.162;11.536;2023-05-24T11:55:45;8.15;;;4.57;;
25069;SDS011;13064;48.162;11.536;2023-05-24T11:58:18;8.23;;;4.47;;
25069;SDS011;13064;48.162;11.536;2023-05-24T12:00:49;13.23;;;5.15;;
25069;SDS011;13064;48.162;11.536;2023-05-24T12:03:17;8.77;;;4.30;;
25069;SDS011;13064;48.162;11.536;2023-05-24T12:05:45;10.63;;;4.55;;
25069;SDS011;13064;48.162;11.536;2023-05-24T12:08:12;10.38;;;4.65;;
25069;SDS011;13064;48.162;11.536;2023-05-24T12:10:41;9.18;;;4.32;;
25069;SDS011;13064;48.162;11.536;2023-05-24T12:13:20;10.95;;;5.28;;
25069;SDS011;13064;48.162;11.536;2023-05-24T12:15:52;11.37;;;5.10;;
25069;SDS011;13064;48.162;11.536;2023-05-24T12:18:23;11.65;;;4.40;;
25069;SDS011;13064;48.162;11.536;2023-05-24T12:20:51;11.52;;;4.40;;
25069;SDS011;13064;48.162;11.536;2023-05-24T12:23:21;10.68;;;4.25;;
25069;SDS011;13064;48.162;11.536;2023-05-24T12:25:49;10.30;;;4.22;;
25069;SDS011;13064;48.162;11.536;2023-05-24T12:28:19;10.05;;;4.10;;
25069;SDS011;13064;48.162;11.536;2023-05-24T12:30:48;7.88;;;4.50;;
25069;SDS011;13064;48.162;11.536;2023-05-24T12:33:19;10.25;;;4.60;;
25069;SDS011;13064;48.162;11.536;2023-05-24T12:35:47;9.68;;;4.38;;
25069;SDS011;13064;48.162;11.536;2023-05-24T12:38:17;10.45;;;4.85;;
25069;SDS011;13064;48.162;11.536;2023-05-24T12:40:51;10.50;;;4.50;;
25069;SDS011;13064;48.162;11.536;2023-05-24T12:43:38;11.15;;;4.50;;
25069;SDS011;13064;48.162;11.536;2023-05-24T12:46:06;13.48;;;4.82;;
25069;SDS011;13064;48.162;11.536;2023-05-24T12:48:34;8.18;;;4.40;;
25069;SDS011;13064;48.162;11.536;2023-05-24T12:51:01;11.65;;;4.68;;
25069;SDS011;13064;48.162;11.536;2023-05-24T12:53:29;10.73;;;4.10;;
25069;SDS011;13064;48.162;11.536;2023-05-24T12:55:57;11.27;;;4.43;;
25069;SDS011;13064;48.162;11.536;2023-05-24T12:58:26;9.45;;;4.30;;
25069;SDS011;13064;48.162;11.536;2023-05-24T13:00:54;10.82;;;4.35;;
25069;SDS011;13064;48.162;11.536;2023-05-24T13:03:22;11.15;;;5.00;;
25069;SDS011;13064;48.162;11.536;2023-05-24T13:05:50;11.77;;;4.63;;
25069;SDS011;13064;48.162;11.536;2023-05-24T13:08:18;9.60;;;4.20;;
25069;SDS011;13064;48.162;11.536;2023-05-24T13:10:45;11.07;;;4.30;;
25069;SDS011;13064;48.162;11.536;2023-05-24T13:13:14;10.77;;;4.00;;
25069;SDS011;13064;48.162;11.536;2023-05-24T13:15:42;8.05;;;3.70;;
25069;SDS011;13064;48.162;11.536;2023-05-24T13:18:10;11.15;;;4.22;;
25069;SDS011;13064;48.162;11.536;2023-05-24T13:20:39;9.43;;;4.25;;
25069;SDS011;13064;48.162;11.536;2023-05-24T13:23:07;14.25;;;4.90;;
25069;SDS011;13064;48.162;11.536;2023-05-24T13:25:34;12.55;;;4.72;;
25069;SDS011;13064;48.162;11.536;2023-05-24T13:28:02;11.57;;;4.40;;
25069;SDS011;13064;48.162;11.536;2023-05-24T13:30:31;9.10;;;4.45;;
25069;SDS011;13064;48.162;11.536;2023-05-24T13:32:58;9.07;;;3.97;;
25069;SDS011;13064;48.162;11.536;2023-05-24T13:35:27;11.18;;;4.22;;
25069;SDS011;13064;48.162;11.536;2023-05-24T13:37:56;9.73;;;4.82;;
25069;SDS011;13064;48.162;11.536;2023-05-24T13:40:24;7.63;;;4.10;;
25069;SDS011;13064;48.162;11.536;2023-05-24T13:42:53;11.40;;;4.25;;
25069;SDS011;13064;48.162;11.536;2023-05-24T13:45:22;9.85;;;3.85;;
25069;SDS011;13064;48.162;11.536;2023-05-24T13:47:50;9.77;;;3.88;;
25069;SDS011;13064;48.162;11.536;2023-05-24T13:50:19;9.43;;;4.00;;
25069;SDS011;13064;48.162;11.536;2023-05-24T13:52:49;11.43;;;4.40;;
25069;SDS011;13064;48.162;11.536;2023-05-24T13:55:16;10.45;;;4.07;;
25069;SDS011;13064;48.162;11.536;2023-05-24T13:57:44;13.57;;;4.15;;
25069;SDS011;13064;48.162;11.536;2023-05-24T14:00:17;11.80;;;4.55;;
25069;SDS011;13064;48.162;11.536;2023-05-24T14:02:46;10.43;;;4.40;;
25069;SDS011;13064;48.162;11.536;2023-05-24T14:05:24;10.23;;;4.80;;
25069;SDS011;13064;48.162;11.536;2023-05-24T14:08:00;11.25;;;4.68;;
25069;SDS011;13064;48.162;11.536;2023-05-24T14:10:37;11.02;;;4.75;;
25069;SDS011;13064;48.162;11.536;2023-05-24T14:13:08;12.77;;;4.80;;
25069;SDS011;13064;48.162;11.536;2023-05-24T14:15:56;13.55;;;5.35;;
25069;SDS011;13064;48.162;11.536;2023-05-24T14:18:24;13.40;;;5.45;;
25069;SDS011;13064;48.162;11.536;2023-05-24T14:20:52;11.63;;;4.70;;
25069;SDS011;13064;48.162;11.536;2023-05-24T14:23:20;11.63;;;4.53;;
25069;SDS011;13064;48.162;11.536;2023-05-24T14:25:50;10.07;;;4.82;;
25069;SDS011;13064;48.162;11.536;2023-05-24T14:28:18;13.73;;;5.07;;
25069;SDS011;13064;48.162;11.536;2023-05-24T14:33:39;13.10;;;5.45;;
25069;SDS011;13064;48.162;11.536;2023-05-24T14:36:07;10.85;;;4.78;;
25069;SDS011;13064;48.162;11.536;2023-05-24T14:38:35;10.73;;;4.95;;
25069;SDS011;13064;48.162;11.536;2023-05-24T14:41:02;10.80;;;4.90;;
25069;SDS011;13064;48.162;11.536;2023-05-24T14:43:31;14.90;;;5.53;;
25069;SDS011;13064;48.162;11.536;2023-05-24T14:45:59;11.30;;;5.05;;
25069;SDS011;13064;48.162;11.536;2023-05-24T14:48:27;12.05;;;4.90;;
25069;SDS011;13064;48.162;11.536;2023-05-24T14:50:54;8.18;;;4.22;;
25069;SDS011;13064;48.162;11.536;2023-05-24T14:53:22;11.68;;;5.05;;
25069;SDS011;13064;48.162;11.536;2023-05-24T14:55:49;10.50;;;5.10;;
25069;SDS011;13064;48.162;11.536;2023-05-24T14:58:19;11.23;;;5.13;;
25069;SDS011;13064;48.162;11.536;2023-05-24T15:00:47;10.90;;;4.93;;
25069;SDS011;13064;48.162;11.536;2023-05-24T15:03:15;10.73;;;5.32;;
25069;SDS011;13064;48.162;11.536;2023-05-24T15:05:44;12.23;;;5.32;;
25069;SDS011;13064;48.162;11.536;2023-05-24T15:08:12;14.48;;;5.45;;
25069;SDS011;13064;48.162;11.536;2023-05-24T15:10:39;13.35;;;4.90;;